sensor_id;sensor_type;location;lat;lon;timestamp;temperature;humidity
76168;DHT22;64927;48.214;16.378;2024-01-30T00:00:01;5.00;68.30
76168;DHT22;64927;48.214;16.378;2024-01-30T00:02:26;5.00;68.30
76168;DHT22;64927;48.214;16.378;2024-01-30T00:04:54;4.90;68.60
76168;DHT22;64927;48.214;16.378;2024-01-30T00:07:20;4.90;68.60
76168;DHT22;64927;48.214;16.378;2024-01-30T00:09:47;4.80;68.80
76168;DHT22;64927;48.214;16.378;2024-01-30T00:12:15;4.80;69.00
76168;DHT22;64927;48.214;16.378;2024-01-30T00:14:44;4.70;69.20
76168;DHT22;64927;48.214;16.378;2024-01-30T00:17:09;4.70;69.30
76168;DHT22;64927;48.214;16.378;2024-01-30T00:19:38;4.70;69.50
76168;DHT22;64927;48.214;16.378;2024-01-30T00:22:06;4.60;69.50
76168;DHT22;64927;48.214;16.378;2024-01-30T00:24:32;4.60;69.50
76168;DHT22;64927;48.214;16.378;2024-01-30T00:26:58;4.60;69.80
76168;DHT22;64927;48.214;16.378;2024-01-30T00:29:24;4.60;69.70
76168;DHT22;64927;48.214;16.378;2024-01-30T00:31:51;4.60;69.80
76168;DHT22;64927;48.214;16.378;2024-01-30T00:34:19;4.70;69.50
76168;DHT22;64927;48.214;16.378;2024-01-30T00:36:46;4.70;69.70
76168;DHT22;64927;48.214;16.378;2024-01-30T00:39:14;4.60;69.70
76168;DHT22;64927;48.214;16.378;2024-01-30T00:41:41;4.60;69.70
76168;DHT22;64927;48.214;16.378;2024-01-30T00:44:06;4.60;69.90
76168;DHT22;64927;48.214;16.378;2024-01-30T00:46:32;4.60;69.90
76168;DHT22;64927;48.214;16.378;2024-01-30T00:49:01;4.70;69.60
76168;DHT22;64927;48.214;16.378;2024-01-30T00:51:26;4.60;69.60
76168;DHT22;64927;48.214;16.378;2024-01-30T00:53:55;4.60;69.60
76168;DHT22;64927;48.214;16.378;2024-01-30T00:56:20;4.60;69.50
76168;DHT22;64927;48.214;16.378;2024-01-30T00:58:49;4.60;69.70
76168;DHT22;64927;48.214;16.378;2024-01-30T01:01:15;4.60;69.60
76168;DHT22;64927;48.214;16.378;2024-01-30T01:03:40;4.60;69.80
76168;DHT22;64927;48.214;16.378;2024-01-30T01:06:09;4.50;70.00
76168;DHT22;64927;48.214;16.378;2024-01-30T01:08:37;4.50;70.20
76168;DHT22;64927;48.214;16.378;2024-01-30T01:11:02;4.50;70.20
76168;DHT22;64927;48.214;16.378;2024-01-30T01:13:29;4.50;70.00
76168;DHT22;64927;48.214;16.378;2024-01-30T01:15:56;4.50;70.10
76168;DHT22;64927;48.214;16.378;2024-01-30T01:18:22;4.50;70.10
76168;DHT22;64927;48.214;16.378;2024-01-30T01:20:47;4.40;70.40
76168;DHT22;64927;48.214;16.378;2024-01-30T01:23:16;4.40;70.40
76168;DHT22;64927;48.214;16.378;2024-01-30T01:25:41;4.50;70.20
76168;DHT22;64927;48.214;16.378;2024-01-30T01:28:07;4.60;70.30
76168;DHT22;64927;48.214;16.378;2024-01-30T01:30:32;4.50;70.20
76168;DHT22;64927;48.214;16.378;2024-01-30T01:32:58;4.50;70.00
76168;DHT22;64927;48.214;16.378;2024-01-30T01:35:26;4.60;70.00
76168;DHT22;64927;48.214;16.378;2024-01-30T01:37:52;4.50;70.00
76168;DHT22;64927;48.214;16.378;2024-01-30T01:40:27;4.50;70.20
76168;DHT22;64927;48.214;16.378;2024-01-30T01:42:55;4.50;70.10
76168;DHT22;64927;48.214;16.378;2024-01-30T01:45:21;4.50;70.20
76168;DHT22;64927;48.214;16.378;2024-01-30T01:47:51;4.50;70.10
76168;DHT22;64927;48.214;16.378;2024-01-30T01:50:18;4.40;70.20
76168;DHT22;64927;48.214;16.378;2024-01-30T01:52:50;4.50;70.30
76168;DHT22;64927;48.214;16.378;2024-01-30T01:55:16;4.50;70.10
76168;DHT22;64927;48.214;16.378;2024-01-30T01:57:47;4.50;70.20
76168;DHT22;64927;48.214;16.378;2024-01-30T02:00:13;4.50;70.10
76168;DHT22;64927;48.214;16.378;2024-01-30T02:02:43;4.50;70.20
76168;DHT22;64927;48.214;16.378;2024-01-30T02:05:10;4.40;70.30
76168;DHT22;64927;48.214;16.378;2024-01-30T02:07:37;4.50;70.20
76168;DHT22;64927;48.214;16.378;2024-01-30T02:10:03;4.50;70.40
76168;DHT22;64927;48.214;16.378;2024-01-30T02:12:32;4.50;70.20
76168;DHT22;64927;48.214;16.378;2024-01-30T02:14:57;4.50;70.20
76168;DHT22;64927;48.214;16.378;2024-01-30T02:17:23;4.50;70.00
76168;DHT22;64927;48.214;16.378;2024-01-30T02:19:49;4.50;70.10
76168;DHT22;64927;48.214;16.378;2024-01-30T02:22:15;4.50;70.20
76168;DHT22;64927;48.214;16.378;2024-01-30T02:24:45;4.60;69.90
76168;DHT22;64927;48.214;16.378;2024-01-30T02:27:11;4.50;69.90
76168;DHT22;64927;48.214;16.378;2024-01-30T02:29:36;4.50;69.90
76168;DHT22;64927;48.214;16.378;2024-01-30T02:32:03;4.50;69.90
76168;DHT22;64927;48.214;16.378;2024-01-30T02:34:31;4.40;70.20
76168;DHT22;64927;48.214;16.378;2024-01-30T02:36:57;4.40;70.30
76168;DHT22;64927;48.214;16.378;2024-01-30T02:39:25;4.40;70.30
76168;DHT22;64927;48.214;16.378;2024-01-30T02:41:53;4.40;70.30
76168;DHT22;64927;48.214;16.378;2024-01-30T02:44:20;4.40;70.20
76168;DHT22;64927;48.214;16.378;2024-01-30T02:46:51;4.30;70.30
76168;DHT22;64927;48.214;16.378;2024-01-30T02:49:22;4.30;70.60
76168;DHT22;64927;48.214;16.378;2024-01-30T02:51:50;4.40;70.40
76168;DHT22;64927;48.214;16.378;2024-01-30T02:54:16;4.30;70.30
76168;DHT22;64927;48.214;16.378;2024-01-30T02:56:42;4.30;70.50
76168;DHT22;64927;48.214;16.378;2024-01-30T02:59:07;4.30;70.30
76168;DHT22;64927;48.214;16.378;2024-01-30T03:01:33;4.30;70.10
76168;DHT22;64927;48.214;16.378;2024-01-30T03:03:58;4.30;70.40
76168;DHT22;64927;48.214;16.378;2024-01-30T03:06:26;4.20;70.30
76168;DHT22;64927;48.214;16.378;2024-01-30T03:08:52;4.20;70.70
76168;DHT22;64927;48.214;16.378;2024-01-30T03:11:17;4.20;70.50
76168;DHT22;64927;48.214;16.378;2024-01-30T03:13:43;4.20;70.30
76168;DHT22;64927;48.214;16.378;2024-01-30T03:16:08;4.30;70.40
76168;DHT22;64927;48.214;16.378;2024-01-30T03:18:34;4.20;70.30
76168;DHT22;64927;48.214;16.378;2024-01-30T03:21:02;4.20;70.70
76168;DHT22;64927;48.214;16.378;2024-01-30T03:23:28;4.20;70.60
76168;DHT22;64927;48.214;16.378;2024-01-30T03:25:53;4.10;70.60
76168;DHT22;64927;48.214;16.378;2024-01-30T03:28:19;4.10;70.80
76168;DHT22;64927;48.214;16.378;2024-01-30T03:30:44;4.10;70.60
76168;DHT22;64927;48.214;16.378;2024-01-30T03:33:10;4.00;70.70
76168;DHT22;64927;48.214;16.378;2024-01-30T03:35:38;4.00;71.00
76168;DHT22;64927;48.214;16.378;2024-01-30T03:38:03;4.10;70.90
76168;DHT22;64927;48.214;16.378;2024-01-30T03:40:29;4.00;70.80
76168;DHT22;64927;48.214;16.378;2024-01-30T03:42:55;4.00;70.90
76168;DHT22;64927;48.214;16.378;2024-01-30T03:45:21;3.90;71.10
76168;DHT22;64927;48.214;16.378;2024-01-30T03:47:46;3.90;71.30
76168;DHT22;64927;48.214;16.378;2024-01-30T03:50:12;3.80;71.30
76168;DHT22;64927;48.214;16.378;2024-01-30T03:52:37;3.80;71.60
76168;DHT22;64927;48.214;16.378;2024-01-30T03:55:06;3.70;71.90
76168;DHT22;64927;48.214;16.378;2024-01-30T03:57:31;3.70;72.10
76168;DHT22;64927;48.214;16.378;2024-01-30T03:59:57;3.70;72.10
76168;DHT22;64927;48.214;16.378;2024-01-30T04:02:24;3.70;72.10
76168;DHT22;64927;48.214;16.378;2024-01-30T04:04:50;3.70;72.30
76168;DHT22;64927;48.214;16.378;2024-01-30T04:07:15;3.70;72.20
76168;DHT22;64927;48.214;16.378;2024-01-30T04:09:41;3.70;72.10
76168;DHT22;64927;48.214;16.378;2024-01-30T04:12:06;3.80;72.90
76168;DHT22;64927;48.214;16.378;2024-01-30T04:14:32;3.80;72.00
76168;DHT22;64927;48.214;16.378;2024-01-30T04:17:00;3.80;71.90
76168;DHT22;64927;48.214;16.378;2024-01-30T04:19:26;3.80;72.00
76168;DHT22;64927;48.214;16.378;2024-01-30T04:21:51;3.80;71.90
76168;DHT22;64927;48.214;16.378;2024-01-30T04:24:19;3.80;71.70
76168;DHT22;64927;48.214;16.378;2024-01-30T04:26:47;3.80;71.90
76168;DHT22;64927;48.214;16.378;2024-01-30T04:29:15;3.80;71.80
76168;DHT22;64927;48.214;16.378;2024-01-30T04:31:40;3.80;71.80
76168;DHT22;64927;48.214;16.378;2024-01-30T04:34:08;3.80;71.70
76168;DHT22;64927;48.214;16.378;2024-01-30T04:36:36;3.80;72.70
76168;DHT22;64927;48.214;16.378;2024-01-30T04:39:02;3.80;71.60
76168;DHT22;64927;48.214;16.378;2024-01-30T04:41:29;3.80;71.60
76168;DHT22;64927;48.214;16.378;2024-01-30T04:43:56;3.80;71.50
76168;DHT22;64927;48.214;16.378;2024-01-30T04:46:22;3.80;71.70
76168;DHT22;64927;48.214;16.378;2024-01-30T04:48:48;3.80;71.40
76168;DHT22;64927;48.214;16.378;2024-01-30T04:51:16;3.70;71.70
76168;DHT22;64927;48.214;16.378;2024-01-30T04:53:41;3.70;71.90
76168;DHT22;64927;48.214;16.378;2024-01-30T04:56:07;3.60;72.20
76168;DHT22;64927;48.214;16.378;2024-01-30T04:58:35;3.60;72.30
76168;DHT22;64927;48.214;16.378;2024-01-30T05:01:02;3.60;72.40
76168;DHT22;64927;48.214;16.378;2024-01-30T05:03:28;3.60;72.30
76168;DHT22;64927;48.214;16.378;2024-01-30T05:05:53;3.60;72.20
76168;DHT22;64927;48.214;16.378;2024-01-30T05:08:19;3.60;72.30
76168;DHT22;64927;48.214;16.378;2024-01-30T05:10:44;3.60;72.50
76168;DHT22;64927;48.214;16.378;2024-01-30T05:13:11;3.60;72.50
76168;DHT22;64927;48.214;16.378;2024-01-30T05:15:39;3.60;72.50
76168;DHT22;64927;48.214;16.378;2024-01-30T05:18:05;3.60;72.90
76168;DHT22;64927;48.214;16.378;2024-01-30T05:20:30;3.60;72.70
76168;DHT22;64927;48.214;16.378;2024-01-30T05:22:58;3.60;72.60
76168;DHT22;64927;48.214;16.378;2024-01-30T05:25:24;3.60;72.80
76168;DHT22;64927;48.214;16.378;2024-01-30T05:27:49;3.60;73.00
76168;DHT22;64927;48.214;16.378;2024-01-30T05:30:15;3.70;72.80
76168;DHT22;64927;48.214;16.378;2024-01-30T05:32:43;3.70;72.50
76168;DHT22;64927;48.214;16.378;2024-01-30T05:35:09;3.70;72.20
76168;DHT22;64927;48.214;16.378;2024-01-30T05:37:34;3.70;72.10
76168;DHT22;64927;48.214;16.378;2024-01-30T05:40:00;3.70;72.30
76168;DHT22;64927;48.214;16.378;2024-01-30T05:42:28;3.70;72.50
76168;DHT22;64927;48.214;16.378;2024-01-30T05:44:53;3.70;72.50
76168;DHT22;64927;48.214;16.378;2024-01-30T05:47:19;3.70;72.00
76168;DHT22;64927;48.214;16.378;2024-01-30T05:49:45;3.60;72.10
76168;DHT22;64927;48.214;16.378;2024-01-30T05:52:10;3.60;72.80
76168;DHT22;64927;48.214;16.378;2024-01-30T05:54:36;3.50;72.90
76168;DHT22;64927;48.214;16.378;2024-01-30T05:57:02;3.50;73.20
76168;DHT22;64927;48.214;16.378;2024-01-30T05:59:27;3.40;73.30
76168;DHT22;64927;48.214;16.378;2024-01-30T06:01:53;3.40;73.50
76168;DHT22;64927;48.214;16.378;2024-01-30T06:04:21;3.40;73.50
76168;DHT22;64927;48.214;16.378;2024-01-30T06:06:46;3.30;73.60
76168;DHT22;64927;48.214;16.378;2024-01-30T06:09:14;3.30;73.60
76168;DHT22;64927;48.214;16.378;2024-01-30T06:11:40;3.30;73.80
76168;DHT22;64927;48.214;16.378;2024-01-30T06:14:08;3.30;73.90
76168;DHT22;64927;48.214;16.378;2024-01-30T06:16:36;3.30;73.90
76168;DHT22;64927;48.214;16.378;2024-01-30T06:19:01;3.20;74.10
76168;DHT22;64927;48.214;16.378;2024-01-30T06:21:27;3.30;74.20
76168;DHT22;64927;48.214;16.378;2024-01-30T06:23:53;3.20;74.00
76168;DHT22;64927;48.214;16.378;2024-01-30T06:26:20;3.30;74.10
76168;DHT22;64927;48.214;16.378;2024-01-30T06:28:48;3.30;73.90
76168;DHT22;64927;48.214;16.378;2024-01-30T06:31:14;3.30;73.50
76168;DHT22;64927;48.214;16.378;2024-01-30T06:33:40;3.30;73.70
76168;DHT22;64927;48.214;16.378;2024-01-30T06:36:07;3.30;73.50
76168;DHT22;64927;48.214;16.378;2024-01-30T06:38:33;3.40;73.30
76168;DHT22;64927;48.214;16.378;2024-01-30T06:40:59;3.40;72.90
76168;DHT22;64927;48.214;16.378;2024-01-30T06:43:26;3.30;73.00
76168;DHT22;64927;48.214;16.378;2024-01-30T06:45:55;3.30;73.30
76168;DHT22;64927;48.214;16.378;2024-01-30T06:48:21;3.30;73.20
76168;DHT22;64927;48.214;16.378;2024-01-30T06:50:46;3.40;72.70
76168;DHT22;64927;48.214;16.378;2024-01-30T06:53:13;3.40;73.00
76168;DHT22;64927;48.214;16.378;2024-01-30T06:55:38;3.40;72.80
76168;DHT22;64927;48.214;16.378;2024-01-30T06:58:04;3.50;72.90
76168;DHT22;64927;48.214;16.378;2024-01-30T07:00:30;3.50;72.70
76168;DHT22;64927;48.214;16.378;2024-01-30T07:02:58;3.50;72.30
76168;DHT22;64927;48.214;16.378;2024-01-30T07:05:28;3.60;72.40
76168;DHT22;64927;48.214;16.378;2024-01-30T07:07:54;3.50;72.30
76168;DHT22;64927;48.214;16.378;2024-01-30T07:10:20;3.60;72.10
76168;DHT22;64927;48.214;16.378;2024-01-30T07:12:45;3.60;72.30
76168;DHT22;64927;48.214;16.378;2024-01-30T07:15:11;3.60;72.10
76168;DHT22;64927;48.214;16.378;2024-01-30T07:17:37;3.60;72.10
76168;DHT22;64927;48.214;16.378;2024-01-30T07:20:03;3.70;71.80
76168;DHT22;64927;48.214;16.378;2024-01-30T07:22:30;3.60;71.90
76168;DHT22;64927;48.214;16.378;2024-01-30T07:24:58;3.70;71.80
76168;DHT22;64927;48.214;16.378;2024-01-30T07:27:24;3.70;71.70
76168;DHT22;64927;48.214;16.378;2024-01-30T07:29:50;3.70;72.00
76168;DHT22;64927;48.214;16.378;2024-01-30T07:32:15;3.70;71.60
76168;DHT22;64927;48.214;16.378;2024-01-30T07:34:46;3.80;71.80
76168;DHT22;64927;48.214;16.378;2024-01-30T07:37:12;4.00;73.20
76168;DHT22;64927;48.214;16.378;2024-01-30T07:39:41;4.30;72.80
76168;DHT22;64927;48.214;16.378;2024-01-30T07:42:06;4.50;70.10
76168;DHT22;64927;48.214;16.378;2024-01-30T07:44:32;4.50;69.30
76168;DHT22;64927;48.214;16.378;2024-01-30T07:46:57;4.40;69.80
76168;DHT22;64927;48.214;16.378;2024-01-30T07:49:23;4.90;73.70
76168;DHT22;64927;48.214;16.378;2024-01-30T07:51:49;5.20;70.90
76168;DHT22;64927;48.214;16.378;2024-01-30T07:54:14;5.40;68.70
76168;DHT22;64927;48.214;16.378;2024-01-30T07:56:42;5.20;66.40
76168;DHT22;64927;48.214;16.378;2024-01-30T07:59:11;5.10;66.60
76168;DHT22;64927;48.214;16.378;2024-01-30T08:01:40;5.00;67.20
76168;DHT22;64927;48.214;16.378;2024-01-30T08:04:05;5.00;67.10
76168;DHT22;64927;48.214;16.378;2024-01-30T08:06:31;4.90;67.30
76168;DHT22;64927;48.214;16.378;2024-01-30T08:08:56;4.90;68.20
76168;DHT22;64927;48.214;16.378;2024-01-30T08:11:24;4.90;67.50
76168;DHT22;64927;48.214;16.378;2024-01-30T08:13:54;4.90;67.40
76168;DHT22;64927;48.214;16.378;2024-01-30T08:16:20;4.90;67.40
76168;DHT22;64927;48.214;16.378;2024-01-30T08:18:46;5.00;66.40
76168;DHT22;64927;48.214;16.378;2024-01-30T08:21:11;5.10;65.60
76168;DHT22;64927;48.214;16.378;2024-01-30T08:23:39;5.10;65.90
76168;DHT22;64927;48.214;16.378;2024-01-30T08:26:05;5.10;65.70
76168;DHT22;64927;48.214;16.378;2024-01-30T08:28:31;5.10;65.50
76168;DHT22;64927;48.214;16.378;2024-01-30T08:30:56;5.20;65.30
76168;DHT22;64927;48.214;16.378;2024-01-30T08:33:24;5.30;65.90
76168;DHT22;64927;48.214;16.378;2024-01-30T08:35:50;5.50;64.80
76168;DHT22;64927;48.214;16.378;2024-01-30T08:38:15;5.50;63.80
76168;DHT22;64927;48.214;16.378;2024-01-30T08:40:41;5.60;63.40
76168;DHT22;64927;48.214;16.378;2024-01-30T08:43:07;5.60;63.50
76168;DHT22;64927;48.214;16.378;2024-01-30T08:45:34;5.70;63.90
76168;DHT22;64927;48.214;16.378;2024-01-30T08:48:02;5.90;63.80
76168;DHT22;64927;48.214;16.378;2024-01-30T08:50:28;6.10;63.00
76168;DHT22;64927;48.214;16.378;2024-01-30T08:52:55;6.20;62.30
76168;DHT22;64927;48.214;16.378;2024-01-30T08:55:21;6.20;61.10
76168;DHT22;64927;48.214;16.378;2024-01-30T08:57:47;6.20;61.20
76168;DHT22;64927;48.214;16.378;2024-01-30T09:00:13;6.00;61.30
76168;DHT22;64927;48.214;16.378;2024-01-30T09:02:39;5.90;62.00
76168;DHT22;64927;48.214;16.378;2024-01-30T09:05:07;6.00;61.70
76168;DHT22;64927;48.214;16.378;2024-01-30T09:07:32;6.00;61.60
76168;DHT22;64927;48.214;16.378;2024-01-30T09:09:58;6.10;61.40
76168;DHT22;64927;48.214;16.378;2024-01-30T09:12:26;6.00;61.30
76168;DHT22;64927;48.214;16.378;2024-01-30T09:14:51;6.10;61.10
76168;DHT22;64927;48.214;16.378;2024-01-30T09:17:20;6.10;61.30
76168;DHT22;64927;48.214;16.378;2024-01-30T09:19:46;6.20;61.40
76168;DHT22;64927;48.214;16.378;2024-01-30T09:22:12;6.30;61.20
76168;DHT22;64927;48.214;16.378;2024-01-30T09:24:37;6.30;60.50
76168;DHT22;64927;48.214;16.378;2024-01-30T09:27:03;6.50;60.40
76168;DHT22;64927;48.214;16.378;2024-01-30T09:29:29;6.60;60.40
76168;DHT22;64927;48.214;16.378;2024-01-30T09:31:54;6.70;60.20
76168;DHT22;64927;48.214;16.378;2024-01-30T09:34:20;6.70;59.80
76168;DHT22;64927;48.214;16.378;2024-01-30T09:36:46;6.80;59.40
76168;DHT22;64927;48.214;16.378;2024-01-30T09:39:11;6.80;58.70
76168;DHT22;64927;48.214;16.378;2024-01-30T09:41:49;6.80;59.40
76168;DHT22;64927;48.214;16.378;2024-01-30T09:44:16;6.90;59.50
76168;DHT22;64927;48.214;16.378;2024-01-30T09:46:43;7.00;60.10
76168;DHT22;64927;48.214;16.378;2024-01-30T09:49:12;7.10;59.20
76168;DHT22;64927;48.214;16.378;2024-01-30T09:51:38;7.20;59.10
76168;DHT22;64927;48.214;16.378;2024-01-30T09:54:08;7.20;59.00
76168;DHT22;64927;48.214;16.378;2024-01-30T09:56:40;7.10;58.80
76168;DHT22;64927;48.214;16.378;2024-01-30T09:59:06;7.00;59.00
76168;DHT22;64927;48.214;16.378;2024-01-30T10:01:34;6.90;59.50
76168;DHT22;64927;48.214;16.378;2024-01-30T10:04:00;6.90;60.00
76168;DHT22;64927;48.214;16.378;2024-01-30T10:06:29;6.90;59.60
76168;DHT22;64927;48.214;16.378;2024-01-30T10:08:57;6.80;59.70
76168;DHT22;64927;48.214;16.378;2024-01-30T10:11:23;6.80;59.90
76168;DHT22;64927;48.214;16.378;2024-01-30T10:13:49;6.70;60.20
76168;DHT22;64927;48.214;16.378;2024-01-30T10:16:14;6.80;60.60
76168;DHT22;64927;48.214;16.378;2024-01-30T10:18:42;6.80;60.60
76168;DHT22;64927;48.214;16.378;2024-01-30T10:21:09;6.80;60.50
76168;DHT22;64927;48.214;16.378;2024-01-30T10:23:35;6.80;60.60
76168;DHT22;64927;48.214;16.378;2024-01-30T10:26:04;6.90;60.60
76168;DHT22;64927;48.214;16.378;2024-01-30T10:28:30;7.00;60.30
76168;DHT22;64927;48.214;16.378;2024-01-30T10:31:02;7.00;60.30
76168;DHT22;64927;48.214;16.378;2024-01-30T10:33:31;6.90;60.20
76168;DHT22;64927;48.214;16.378;2024-01-30T10:36:03;7.00;60.70
76168;DHT22;64927;48.214;16.378;2024-01-30T10:38:32;7.10;60.40
76168;DHT22;64927;48.214;16.378;2024-01-30T10:41:01;7.20;60.00
76168;DHT22;64927;48.214;16.378;2024-01-30T10:43:31;7.20;59.90
76168;DHT22;64927;48.214;16.378;2024-01-30T10:46:11;7.30;60.00
76168;DHT22;64927;48.214;16.378;2024-01-30T10:48:43;7.40;59.00
76168;DHT22;64927;48.214;16.378;2024-01-30T10:51:13;7.50;59.10
76168;DHT22;64927;48.214;16.378;2024-01-30T10:53:39;7.60;59.20
76168;DHT22;64927;48.214;16.378;2024-01-30T10:56:06;7.50;58.90
76168;DHT22;64927;48.214;16.378;2024-01-30T10:58:34;7.70;58.20
76168;DHT22;64927;48.214;16.378;2024-01-30T11:01:03;7.80;57.80
76168;DHT22;64927;48.214;16.378;2024-01-30T11:03:29;7.80;57.70
76168;DHT22;64927;48.214;16.378;2024-01-30T11:05:59;7.90;57.80
76168;DHT22;64927;48.214;16.378;2024-01-30T11:08:27;7.90;57.50
76168;DHT22;64927;48.214;16.378;2024-01-30T11:10:57;7.90;57.30
76168;DHT22;64927;48.214;16.378;2024-01-30T11:13:30;8.00;57.30
76168;DHT22;64927;48.214;16.378;2024-01-30T11:16:06;8.10;56.90
76168;DHT22;64927;48.214;16.378;2024-01-30T11:18:33;8.10;57.50
76168;DHT22;64927;48.214;16.378;2024-01-30T11:21:00;8.20;58.30
76168;DHT22;64927;48.214;16.378;2024-01-30T11:23:28;8.40;57.90
76168;DHT22;64927;48.214;16.378;2024-01-30T11:25:54;8.70;58.90
76168;DHT22;64927;48.214;16.378;2024-01-30T11:28:21;8.60;54.40
76168;DHT22;64927;48.214;16.378;2024-01-30T11:30:48;8.40;54.80
76168;DHT22;64927;48.214;16.378;2024-01-30T11:33:29;8.40;54.80
76168;DHT22;64927;48.214;16.378;2024-01-30T11:35:57;8.40;54.70
76168;DHT22;64927;48.214;16.378;2024-01-30T11:38:26;8.40;55.20
76168;DHT22;64927;48.214;16.378;2024-01-30T11:40:55;8.40;55.70
76168;DHT22;64927;48.214;16.378;2024-01-30T11:43:24;8.50;54.50
76168;DHT22;64927;48.214;16.378;2024-01-30T11:45:52;8.50;54.50
76168;DHT22;64927;48.214;16.378;2024-01-30T11:48:20;8.40;54.30
76168;DHT22;64927;48.214;16.378;2024-01-30T11:50:49;8.50;54.70
76168;DHT22;64927;48.214;16.378;2024-01-30T11:53:18;8.60;53.50
76168;DHT22;64927;48.214;16.378;2024-01-30T11:55:50;8.70;53.80
76168;DHT22;64927;48.214;16.378;2024-01-30T11:58:16;8.60;53.70
76168;DHT22;64927;48.214;16.378;2024-01-30T12:00:41;8.50;54.30
76168;DHT22;64927;48.214;16.378;2024-01-30T12:03:07;8.50;53.70
76168;DHT22;64927;48.214;16.378;2024-01-30T12:05:33;8.50;54.10
76168;DHT22;64927;48.214;16.378;2024-01-30T12:08:01;8.60;53.90
76168;DHT22;64927;48.214;16.378;2024-01-30T12:10:26;8.70;53.70
76168;DHT22;64927;48.214;16.378;2024-01-30T12:12:52;8.60;53.10
76168;DHT22;64927;48.214;16.378;2024-01-30T12:15:21;8.70;53.70
76168;DHT22;64927;48.214;16.378;2024-01-30T12:17:47;8.80;52.80
76168;DHT22;64927;48.214;16.378;2024-01-30T12:20:21;9.00;52.90
76168;DHT22;64927;48.214;16.378;2024-01-30T12:22:48;9.00;52.80
76168;DHT22;64927;48.214;16.378;2024-01-30T12:25:15;8.90;53.40
76168;DHT22;64927;48.214;16.378;2024-01-30T12:27:49;8.80;53.40
76168;DHT22;64927;48.214;16.378;2024-01-30T12:30:20;8.80;53.30
76168;DHT22;64927;48.214;16.378;2024-01-30T12:32:50;8.80;53.20
76168;DHT22;64927;48.214;16.378;2024-01-30T12:35:20;8.80;53.90
76168;DHT22;64927;48.214;16.378;2024-01-30T12:37:47;8.80;53.50
76168;DHT22;64927;48.214;16.378;2024-01-30T12:40:17;8.90;53.50
76168;DHT22;64927;48.214;16.378;2024-01-30T12:42:43;8.90;52.30
76168;DHT22;64927;48.214;16.378;2024-01-30T12:45:14;8.90;52.00
76168;DHT22;64927;48.214;16.378;2024-01-30T12:47:41;8.90;52.00
76168;DHT22;64927;48.214;16.378;2024-01-30T12:50:09;8.90;52.00
76168;DHT22;64927;48.214;16.378;2024-01-30T12:52:35;8.90;52.00
76168;DHT22;64927;48.214;16.378;2024-01-30T12:55:01;9.00;51.80
76168;DHT22;64927;48.214;16.378;2024-01-30T12:57:29;9.00;51.40
76168;DHT22;64927;48.214;16.378;2024-01-30T12:59:55;9.00;50.90
76168;DHT22;64927;48.214;16.378;2024-01-30T13:02:20;8.90;51.10
76168;DHT22;64927;48.214;16.378;2024-01-30T13:04:48;8.90;51.20
76168;DHT22;64927;48.214;16.378;2024-01-30T13:07:14;9.00;50.90
76168;DHT22;64927;48.214;16.378;2024-01-30T13:09:42;9.00;51.10
76168;DHT22;64927;48.214;16.378;2024-01-30T13:12:10;9.10;50.60
76168;DHT22;64927;48.214;16.378;2024-01-30T13:14:35;9.10;51.10
76168;DHT22;64927;48.214;16.378;2024-01-30T13:17:01;9.20;50.90
76168;DHT22;64927;48.214;16.378;2024-01-30T13:19:27;9.30;49.60
76168;DHT22;64927;48.214;16.378;2024-01-30T13:21:52;9.20;49.60
76168;DHT22;64927;48.214;16.378;2024-01-30T13:24:22;9.20;49.90
76168;DHT22;64927;48.214;16.378;2024-01-30T13:26:48;9.20;50.00
76168;DHT22;64927;48.214;16.378;2024-01-30T13:29:14;9.10;50.60
76168;DHT22;64927;48.214;16.378;2024-01-30T13:31:40;9.20;49.70
76168;DHT22;64927;48.214;16.378;2024-01-30T13:34:06;9.20;50.00
76168;DHT22;64927;48.214;16.378;2024-01-30T13:36:35;9.10;49.90
76168;DHT22;64927;48.214;16.378;2024-01-30T13:39:00;9.10;49.70
76168;DHT22;64927;48.214;16.378;2024-01-30T13:41:26;9.20;49.60
76168;DHT22;64927;48.214;16.378;2024-01-30T13:43:51;9.20;49.60
76168;DHT22;64927;48.214;16.378;2024-01-30T13:46:17;9.00;49.90
76168;DHT22;64927;48.214;16.378;2024-01-30T13:48:43;9.00;49.90
76168;DHT22;64927;48.214;16.378;2024-01-30T13:51:08;8.90;50.40
76168;DHT22;64927;48.214;16.378;2024-01-30T13:53:36;8.90;50.80
76168;DHT22;64927;48.214;16.378;2024-01-30T13:56:05;8.90;50.60
76168;DHT22;64927;48.214;16.378;2024-01-30T13:58:31;9.00;50.20
76168;DHT22;64927;48.214;16.378;2024-01-30T14:01:01;9.00;50.40
76168;DHT22;64927;48.214;16.378;2024-01-30T14:03:30;9.10;50.10
76168;DHT22;64927;48.214;16.378;2024-01-30T14:05:55;9.00;50.60
76168;DHT22;64927;48.214;16.378;2024-01-30T14:08:23;9.10;50.10
76168;DHT22;64927;48.214;16.378;2024-01-30T14:10:52;9.00;50.20
76168;DHT22;64927;48.214;16.378;2024-01-30T14:13:17;9.00;50.20
76168;DHT22;64927;48.214;16.378;2024-01-30T14:15:43;9.00;50.30
76168;DHT22;64927;48.214;16.378;2024-01-30T14:18:09;9.00;50.40
76168;DHT22;64927;48.214;16.378;2024-01-30T14:20:37;9.00;50.70
76168;DHT22;64927;48.214;16.378;2024-01-30T14:23:02;9.00;50.90
76168;DHT22;64927;48.214;16.378;2024-01-30T14:25:31;9.10;50.70
76168;DHT22;64927;48.214;16.378;2024-01-30T14:27:58;9.10;50.90
76168;DHT22;64927;48.214;16.378;2024-01-30T14:30:24;9.10;50.80
76168;DHT22;64927;48.214;16.378;2024-01-30T14:32:50;9.10;51.10
76168;DHT22;64927;48.214;16.378;2024-01-30T14:35:15;9.10;51.10
76168;DHT22;64927;48.214;16.378;2024-01-30T14:37:41;9.00;51.40
76168;DHT22;64927;48.214;16.378;2024-01-30T14:40:07;9.00;51.50
76168;DHT22;64927;48.214;16.378;2024-01-30T14:42:36;9.00;51.50
76168;DHT22;64927;48.214;16.378;2024-01-30T14:45:03;9.00;51.70
76168;DHT22;64927;48.214;16.378;2024-01-30T14:47:31;9.00;51.80
76168;DHT22;64927;48.214;16.378;2024-01-30T14:49:57;9.00;51.70
76168;DHT22;64927;48.214;16.378;2024-01-30T14:52:27;8.90;51.90
76168;DHT22;64927;48.214;16.378;2024-01-30T14:54:52;8.90;52.50
76168;DHT22;64927;48.214;16.378;2024-01-30T14:57:18;8.80;52.70
76168;DHT22;64927;48.214;16.378;2024-01-30T14:59:44;8.80;52.90
76168;DHT22;64927;48.214;16.378;2024-01-30T15:02:10;8.80;53.10
76168;DHT22;64927;48.214;16.378;2024-01-30T15:04:35;8.80;52.90
76168;DHT22;64927;48.214;16.378;2024-01-30T15:07:01;8.80;53.00
76168;DHT22;64927;48.214;16.378;2024-01-30T15:09:29;8.80;53.20
76168;DHT22;64927;48.214;16.378;2024-01-30T15:11:55;8.70;53.40
76168;DHT22;64927;48.214;16.378;2024-01-30T15:14:20;8.70;53.50
76168;DHT22;64927;48.214;16.378;2024-01-30T15:16:48;8.70;53.40
76168;DHT22;64927;48.214;16.378;2024-01-30T15:19:14;8.60;53.60
76168;DHT22;64927;48.214;16.378;2024-01-30T15:21:40;8.60;54.00
76168;DHT22;64927;48.214;16.378;2024-01-30T15:24:08;8.60;54.10
76168;DHT22;64927;48.214;16.378;2024-01-30T15:26:40;8.60;54.00